<?xml version="1.0" encoding="UTF-8" standalone="no" ?>
<gpx xmlns="http://www.topografix.com/GPX/1/1" xmlns:xsi="http://www.w3.org/2001/XMLSchema-instance" xsi:schemaLocation="http://www.topografix.com/GPX/1/1 http://www.topografix.com/GPX/1/1/gpx.xsd" version="1.1" creator="VisuGPX - https://www.visugpx.com">
  <metadata>
    <name>Rando trail - n°3 Bleu - Chevry Gometz sur TraceDeTrail.fr</name>
  </metadata>
  <trk>
    <name><![CDATA[Rando trail - n°3 Bleu - Chevry Gometz sur TraceDeTrail.fr]]></name>
    <trkseg>
      <trkpt lat="48.69703" lon="2.15929">
        <ele>57</ele>
        <time>2000-01-01T00:25:04.000Z</time>
      </trkpt>
      <trkpt lat="48.69693" lon="2.15935">
        <ele>63</ele>
        <time>2000-01-01T00:25:14.000Z</time>
      </trkpt>
      <trkpt lat="48.69678" lon="2.15988">
        <ele>61</ele>
        <time>2000-01-01T00:25:24.000Z</time>
      </trkpt>
      <trkpt lat="48.69655" lon="2.15992">
        <ele>61</ele>
        <time>2000-01-01T00:25:34.000Z</time>
      </trkpt>
      <trkpt lat="48.6963" lon="2.15997">
        <ele>62</ele>
        <time>2000-01-01T00:25:44.000Z</time>
      </trkpt>
      <trkpt lat="48.69592" lon="2.16002">
        <ele>65</ele>
        <time>2000-01-01T00:25:54.000Z</time>
      </trkpt>
      <trkpt lat="48.69561" lon="2.16003">
        <ele>67</ele>
        <time>2000-01-01T00:26:04.000Z</time>
      </trkpt>
      <trkpt lat="48.69549" lon="2.16001">
        <ele>71</ele>
        <time>2000-01-01T00:26:14.000Z</time>
      </trkpt>
      <trkpt lat="48.69484" lon="2.15959">
        <ele>69</ele>
        <time>2000-01-01T00:26:24.000Z</time>
      </trkpt>
      <trkpt lat="48.69465" lon="2.15914">
        <ele>71</ele>
        <time>2000-01-01T00:26:34.000Z</time>
      </trkpt>
      <trkpt lat="48.69446" lon="2.15877">
        <ele>71</ele>
        <time>2000-01-01T00:26:44.000Z</time>
      </trkpt>
      <trkpt lat="48.69422" lon="2.15897">
        <ele>71</ele>
        <time>2000-01-01T00:26:54.000Z</time>
      </trkpt>
      <trkpt lat="48.69416" lon="2.15879">
        <ele>75.7</ele>
        <time>2000-01-01T00:27:04.000Z</time>
      </trkpt>
      <trkpt lat="48.69408" lon="2.15849">
        <ele>72</ele>
        <time>2000-01-01T00:27:14.000Z</time>
      </trkpt>
      <trkpt lat="48.69388" lon="2.15849">
        <ele>73</ele>
        <time>2000-01-01T00:27:24.000Z</time>
      </trkpt>
      <trkpt lat="48.69374" lon="2.15853">
        <ele>79.9</ele>
        <time>2000-01-01T00:27:34.000Z</time>
      </trkpt>
      <trkpt lat="48.69364" lon="2.15821">
        <ele>73</ele>
        <time>2000-01-01T00:27:44.000Z</time>
      </trkpt>
      <trkpt lat="48.69356" lon="2.15794">
        <ele>73</ele>
        <time>2000-01-01T00:27:54.000Z</time>
      </trkpt>
      <trkpt lat="48.69317" lon="2.15767">
        <ele>74</ele>
        <time>2000-01-01T00:28:04.000Z</time>
      </trkpt>
      <trkpt lat="48.69297" lon="2.15773">
        <ele>74</ele>
        <time>2000-01-01T00:28:14.000Z</time>
      </trkpt>
      <trkpt lat="48.69288" lon="2.1576">
        <ele>77</ele>
        <time>2000-01-01T00:28:24.000Z</time>
      </trkpt>
      <trkpt lat="48.69274" lon="2.15736">
        <ele>74</ele>
        <time>2000-01-01T00:28:34.000Z</time>
      </trkpt>
      <trkpt lat="48.69252" lon="2.15703">
        <ele>74</ele>
        <time>2000-01-01T00:28:44.000Z</time>
      </trkpt>
      <trkpt lat="48.69234" lon="2.15679">
        <ele>75</ele>
        <time>2000-01-01T00:28:54.000Z</time>
      </trkpt>
      <trkpt lat="48.69227" lon="2.15692">
        <ele>79.2</ele>
        <time>2000-01-01T00:29:04.000Z</time>
      </trkpt>
      <trkpt lat="48.6918" lon="2.15615">
        <ele>75</ele>
        <time>2000-01-01T00:29:14.000Z</time>
      </trkpt>
      <trkpt lat="48.69161" lon="2.15577">
        <ele>75</ele>
        <time>2000-01-01T00:29:24.000Z</time>
      </trkpt>
      <trkpt lat="48.69145" lon="2.15551">
        <ele>75</ele>
        <time>2000-01-01T00:29:34.000Z</time>
      </trkpt>
      <trkpt lat="48.69133" lon="2.15522">
        <ele>74</ele>
        <time>2000-01-01T00:29:44.000Z</time>
      </trkpt>
      <trkpt lat="48.69134" lon="2.15498">
        <ele>73.3</ele>
        <time>2000-01-01T00:29:54.000Z</time>
      </trkpt>
      <trkpt lat="48.69142" lon="2.15474">
        <ele>74</ele>
        <time>2000-01-01T00:30:04.000Z</time>
      </trkpt>
      <trkpt lat="48.69157" lon="2.15462">
        <ele>72</ele>
        <time>2000-01-01T00:30:14.000Z</time>
      </trkpt>
      <trkpt lat="48.69166" lon="2.15437">
        <ele>70</ele>
        <time>2000-01-01T00:30:24.000Z</time>
      </trkpt>
      <trkpt lat="48.69182" lon="2.154">
        <ele>69</ele>
        <time>2000-01-01T00:30:34.000Z</time>
      </trkpt>
      <trkpt lat="48.69152" lon="2.15382">
        <ele>69</ele>
        <time>2000-01-01T00:30:44.000Z</time>
      </trkpt>
      <trkpt lat="48.69135" lon="2.15355">
        <ele>70</ele>
        <time>2000-01-01T00:30:54.000Z</time>
      </trkpt>
      <trkpt lat="48.69119" lon="2.15313">
        <ele>71</ele>
        <time>2000-01-01T00:31:04.000Z</time>
      </trkpt>
      <trkpt lat="48.6911" lon="2.1528">
        <ele>75</ele>
        <time>2000-01-01T00:31:14.000Z</time>
      </trkpt>
      <trkpt lat="48.69089" lon="2.15254">
        <ele>77</ele>
        <time>2000-01-01T00:31:24.000Z</time>
      </trkpt>
      <trkpt lat="48.69067" lon="2.15239">
        <ele>77</ele>
        <time>2000-01-01T00:31:34.000Z</time>
      </trkpt>
      <trkpt lat="48.69055" lon="2.15268">
        <ele>75</ele>
        <time>2000-01-01T00:31:44.000Z</time>
      </trkpt>
      <trkpt lat="48.69043" lon="2.15297">
        <ele>74</ele>
        <time>2000-01-01T00:31:54.000Z</time>
      </trkpt>
      <trkpt lat="48.69022" lon="2.15286">
        <ele>72</ele>
        <time>2000-01-01T00:32:04.000Z</time>
      </trkpt>
      <trkpt lat="48.69001" lon="2.15276">
        <ele>72</ele>
        <time>2000-01-01T00:32:14.000Z</time>
      </trkpt>
      <trkpt lat="48.68989" lon="2.15266">
        <ele>77</ele>
        <time>2000-01-01T00:32:24.000Z</time>
      </trkpt>
      <trkpt lat="48.69039" lon="2.15148">
        <ele>76</ele>
        <time>2000-01-01T00:32:34.000Z</time>
      </trkpt>
      <trkpt lat="48.69062" lon="2.15101">
        <ele>81</ele>
        <time>2000-01-01T00:32:44.000Z</time>
      </trkpt>
      <trkpt lat="48.69074" lon="2.15071">
        <ele>83</ele>
        <time>2000-01-01T00:32:54.000Z</time>
      </trkpt>
      <trkpt lat="48.69088" lon="2.15038">
        <ele>88</ele>
        <time>2000-01-01T00:33:04.000Z</time>
      </trkpt>
      <trkpt lat="48.69108" lon="2.1499">
        <ele>92</ele>
        <time>2000-01-01T00:33:14.000Z</time>
      </trkpt>
      <trkpt lat="48.69128" lon="2.14942">
        <ele>98</ele>
        <time>2000-01-01T00:33:24.000Z</time>
      </trkpt>
      <trkpt lat="48.69146" lon="2.14899">
        <ele>115</ele>
        <time>2000-01-01T00:33:34.000Z</time>
      </trkpt>
      <trkpt lat="48.69177" lon="2.14922">
        <ele>120</ele>
        <time>2000-01-01T00:33:44.000Z</time>
      </trkpt>
      <trkpt lat="48.69196" lon="2.14936">
        <ele>122</ele>
        <time>2000-01-01T00:33:54.000Z</time>
      </trkpt>
      <trkpt lat="48.69224" lon="2.14954">
        <ele>124</ele>
        <time>2000-01-01T00:34:04.000Z</time>
      </trkpt>
      <trkpt lat="48.69241" lon="2.14958">
        <ele>111.2</ele>
        <time>2000-01-01T00:34:14.000Z</time>
      </trkpt>
      <trkpt lat="48.6925" lon="2.14954">
        <ele>123</ele>
        <time>2000-01-01T00:34:24.000Z</time>
      </trkpt>
      <trkpt lat="48.69255" lon="2.14942">
        <ele>114.2</ele>
        <time>2000-01-01T00:34:34.000Z</time>
      </trkpt>
      <trkpt lat="48.69264" lon="2.1492">
        <ele>123</ele>
        <time>2000-01-01T00:34:44.000Z</time>
      </trkpt>
      <trkpt lat="48.69243" lon="2.14871">
        <ele>123</ele>
        <time>2000-01-01T00:34:54.000Z</time>
      </trkpt>
      <trkpt lat="48.69223" lon="2.14831">
        <ele>135</ele>
        <time>2000-01-01T00:35:04.000Z</time>
      </trkpt>
      <trkpt lat="48.69211" lon="2.14808">
        <ele>140</ele>
        <time>2000-01-01T00:35:14.000Z</time>
      </trkpt>
      <trkpt lat="48.69201" lon="2.14787">
        <ele>148.5</ele>
        <time>2000-01-01T00:35:24.000Z</time>
      </trkpt>
      <trkpt lat="48.69211" lon="2.14751">
        <ele>142</ele>
        <time>2000-01-01T00:35:34.000Z</time>
      </trkpt>
      <trkpt lat="48.69226" lon="2.14702">
        <ele>146</ele>
        <time>2000-01-01T00:35:44.000Z</time>
      </trkpt>
      <trkpt lat="48.69237" lon="2.1466">
        <ele>146</ele>
        <time>2000-01-01T00:35:54.000Z</time>
      </trkpt>
      <trkpt lat="48.69248" lon="2.14618">
        <ele>146</ele>
        <time>2000-01-01T00:36:04.000Z</time>
      </trkpt>
      <trkpt lat="48.69262" lon="2.14573">
        <ele>149</ele>
        <time>2000-01-01T00:36:14.000Z</time>
      </trkpt>
      <trkpt lat="48.6926" lon="2.14527">
        <ele>150</ele>
        <time>2000-01-01T00:36:24.000Z</time>
      </trkpt>
      <trkpt lat="48.69261" lon="2.14482">
        <ele>152</ele>
        <time>2000-01-01T00:36:34.000Z</time>
      </trkpt>
      <trkpt lat="48.69261" lon="2.14436">
        <ele>154</ele>
        <time>2000-01-01T00:36:44.000Z</time>
      </trkpt>
      <trkpt lat="48.69267" lon="2.14396">
        <ele>152</ele>
        <time>2000-01-01T00:36:54.000Z</time>
      </trkpt>
      <trkpt lat="48.69272" lon="2.14363">
        <ele>151</ele>
        <time>2000-01-01T00:37:04.000Z</time>
      </trkpt>
      <trkpt lat="48.69277" lon="2.1433">
        <ele>151</ele>
        <time>2000-01-01T00:37:14.000Z</time>
      </trkpt>
      <trkpt lat="48.69249" lon="2.14314">
        <ele>151</ele>
        <time>2000-01-01T00:37:24.000Z</time>
      </trkpt>
      <trkpt lat="48.69242" lon="2.14279">
        <ele>156</ele>
        <time>2000-01-01T00:37:34.000Z</time>
      </trkpt>
      <trkpt lat="48.69234" lon="2.1424">
        <ele>156</ele>
        <time>2000-01-01T00:37:44.000Z</time>
      </trkpt>
      <trkpt lat="48.69229" lon="2.14198">
        <ele>159</ele>
        <time>2000-01-01T00:37:54.000Z</time>
      </trkpt>
      <trkpt lat="48.69221" lon="2.14153">
        <ele>159</ele>
        <time>2000-01-01T00:38:04.000Z</time>
      </trkpt>
      <trkpt lat="48.69211" lon="2.1411">
        <ele>159</ele>
        <time>2000-01-01T00:38:14.000Z</time>
      </trkpt>
      <trkpt lat="48.69205" lon="2.14082">
        <ele>159</ele>
        <time>2000-01-01T00:38:24.000Z</time>
      </trkpt>
      <trkpt lat="48.69204" lon="2.14052">
        <ele>162</ele>
        <time>2000-01-01T00:38:34.000Z</time>
      </trkpt>
      <trkpt lat="48.69209" lon="2.14039">
        <ele>153</ele>
        <time>2000-01-01T00:38:44.000Z</time>
      </trkpt>
      <trkpt lat="48.69208" lon="2.14012">
        <ele>163</ele>
        <time>2000-01-01T00:38:54.000Z</time>
      </trkpt>
      <trkpt lat="48.692" lon="2.13977">
        <ele>164</ele>
        <time>2000-01-01T00:39:04.000Z</time>
      </trkpt>
      <trkpt lat="48.69199" lon="2.13948">
        <ele>164</ele>
        <time>2000-01-01T00:39:14.000Z</time>
      </trkpt>
      <trkpt lat="48.69205" lon="2.13895">
        <ele>165</ele>
        <time>2000-01-01T00:39:24.000Z</time>
      </trkpt>
      <trkpt lat="48.69209" lon="2.13851">
        <ele>165</ele>
        <time>2000-01-01T00:39:34.000Z</time>
      </trkpt>
      <trkpt lat="48.69212" lon="2.13813">
        <ele>163</ele>
        <time>2000-01-01T00:39:44.000Z</time>
      </trkpt>
      <trkpt lat="48.69217" lon="2.13764">
        <ele>163</ele>
        <time>2000-01-01T00:39:54.000Z</time>
      </trkpt>
      <trkpt lat="48.69225" lon="2.13719">
        <ele>164</ele>
        <time>2000-01-01T00:40:04.000Z</time>
      </trkpt>
      <trkpt lat="48.69226" lon="2.13685">
        <ele>165</ele>
        <time>2000-01-01T00:40:14.000Z</time>
      </trkpt>
      <trkpt lat="48.69227" lon="2.13651">
        <ele>165</ele>
        <time>2000-01-01T00:40:24.000Z</time>
      </trkpt>
      <trkpt lat="48.69215" lon="2.13603">
        <ele>166</ele>
        <time>2000-01-01T00:40:34.000Z</time>
      </trkpt>
      <trkpt lat="48.69212" lon="2.13568">
        <ele>166</ele>
        <time>2000-01-01T00:40:44.000Z</time>
      </trkpt>
      <trkpt lat="48.69209" lon="2.13529">
        <ele>165</ele>
        <time>2000-01-01T00:40:54.000Z</time>
      </trkpt>
      <trkpt lat="48.69224" lon="2.13494">
        <ele>165</ele>
        <time>2000-01-01T00:41:04.000Z</time>
      </trkpt>
      <trkpt lat="48.69247" lon="2.1344">
        <ele>164</ele>
        <time>2000-01-01T00:41:14.000Z</time>
      </trkpt>
      <trkpt lat="48.6926" lon="2.13468">
        <ele>164</ele>
        <time>2000-01-01T00:41:24.000Z</time>
      </trkpt>
      <trkpt lat="48.69289" lon="2.13508">
        <ele>164</ele>
        <time>2000-01-01T00:41:34.000Z</time>
      </trkpt>
      <trkpt lat="48.69319" lon="2.13549">
        <ele>163</ele>
        <time>2000-01-01T00:41:44.000Z</time>
      </trkpt>
      <trkpt lat="48.6934" lon="2.13584">
        <ele>155</ele>
        <time>2000-01-01T00:41:54.000Z</time>
      </trkpt>
      <trkpt lat="48.69357" lon="2.13626">
        <ele>146</ele>
        <time>2000-01-01T00:42:04.000Z</time>
      </trkpt>
      <trkpt lat="48.69365" lon="2.13638">
        <ele>130.6</ele>
        <time>2000-01-01T00:42:14.000Z</time>
      </trkpt>
      <trkpt lat="48.69379" lon="2.13605">
        <ele>136</ele>
        <time>2000-01-01T00:42:24.000Z</time>
      </trkpt>
      <trkpt lat="48.6939" lon="2.13565">
        <ele>133</ele>
        <time>2000-01-01T00:42:34.000Z</time>
      </trkpt>
      <trkpt lat="48.69409" lon="2.13541">
        <ele>131</ele>
        <time>2000-01-01T00:42:44.000Z</time>
      </trkpt>
      <trkpt lat="48.69431" lon="2.13514">
        <ele>123</ele>
        <time>2000-01-01T00:42:54.000Z</time>
      </trkpt>
      <trkpt lat="48.69442" lon="2.13501">
        <ele>108.7</ele>
        <time>2000-01-01T00:43:04.000Z</time>
      </trkpt>
      <trkpt lat="48.69448" lon="2.13436">
        <ele>114</ele>
        <time>2000-01-01T00:43:14.000Z</time>
      </trkpt>
      <trkpt lat="48.69458" lon="2.13387">
        <ele>114</ele>
        <time>2000-01-01T00:43:24.000Z</time>
      </trkpt>
      <trkpt lat="48.69464" lon="2.13354">
        <ele>110</ele>
        <time>2000-01-01T00:43:34.000Z</time>
      </trkpt>
      <trkpt lat="48.69464" lon="2.13315">
        <ele>107</ele>
        <time>2000-01-01T00:43:44.000Z</time>
      </trkpt>
      <trkpt lat="48.69448" lon="2.13279">
        <ele>107</ele>
        <time>2000-01-01T00:43:54.000Z</time>
      </trkpt>
      <trkpt lat="48.69437" lon="2.13231">
        <ele>114</ele>
        <time>2000-01-01T00:44:04.000Z</time>
      </trkpt>
      <trkpt lat="48.69432" lon="2.13195">
        <ele>114</ele>
        <time>2000-01-01T00:44:14.000Z</time>
      </trkpt>
      <trkpt lat="48.69426" lon="2.13148">
        <ele>114</ele>
        <time>2000-01-01T00:44:24.000Z</time>
      </trkpt>
      <trkpt lat="48.69423" lon="2.13105">
        <ele>118</ele>
        <time>2000-01-01T00:44:34.000Z</time>
      </trkpt>
      <trkpt lat="48.6942" lon="2.13068">
        <ele>118</ele>
        <time>2000-01-01T00:44:44.000Z</time>
      </trkpt>
      <trkpt lat="48.69416" lon="2.13024">
        <ele>117</ele>
        <time>2000-01-01T00:44:54.000Z</time>
      </trkpt>
      <trkpt lat="48.6942" lon="2.12986">
        <ele>116</ele>
        <time>2000-01-01T00:45:04.000Z</time>
      </trkpt>
      <trkpt lat="48.69427" lon="2.12936">
        <ele>114</ele>
        <time>2000-01-01T00:45:14.000Z</time>
      </trkpt>
      <trkpt lat="48.69427" lon="2.12895">
        <ele>113</ele>
        <time>2000-01-01T00:45:24.000Z</time>
      </trkpt>
      <trkpt lat="48.69428" lon="2.12828">
        <ele>111</ele>
        <time>2000-01-01T00:45:34.000Z</time>
      </trkpt>
      <trkpt lat="48.69425" lon="2.12787">
        <ele>109</ele>
        <time>2000-01-01T00:45:44.000Z</time>
      </trkpt>
      <trkpt lat="48.69423" lon="2.12753">
        <ele>108</ele>
        <time>2000-01-01T00:45:54.000Z</time>
      </trkpt>
      <trkpt lat="48.69421" lon="2.12718">
        <ele>108</ele>
        <time>2000-01-01T00:46:04.000Z</time>
      </trkpt>
      <trkpt lat="48.694" lon="2.12734">
        <ele>108</ele>
        <time>2000-01-01T00:46:14.000Z</time>
      </trkpt>
      <trkpt lat="48.69376" lon="2.12754">
        <ele>114</ele>
        <time>2000-01-01T00:46:24.000Z</time>
      </trkpt>
      <trkpt lat="48.69346" lon="2.12789">
        <ele>115</ele>
        <time>2000-01-01T00:46:34.000Z</time>
      </trkpt>
      <trkpt lat="48.69333" lon="2.12819">
        <ele>131</ele>
        <time>2000-01-01T00:46:44.000Z</time>
      </trkpt>
      <trkpt lat="48.6932" lon="2.12824">
        <ele>125.1</ele>
        <time>2000-01-01T00:46:54.000Z</time>
      </trkpt>
      <trkpt lat="48.69318" lon="2.12788">
        <ele>132</ele>
        <time>2000-01-01T00:47:04.000Z</time>
      </trkpt>
      <trkpt lat="48.69309" lon="2.12729">
        <ele>134</ele>
        <time>2000-01-01T00:47:14.000Z</time>
      </trkpt>
      <trkpt lat="48.69307" lon="2.1269">
        <ele>135</ele>
        <time>2000-01-01T00:47:24.000Z</time>
      </trkpt>
      <trkpt lat="48.69303" lon="2.12638">
        <ele>135</ele>
        <time>2000-01-01T00:47:34.000Z</time>
      </trkpt>
      <trkpt lat="48.69274" lon="2.12607">
        <ele>139</ele>
        <time>2000-01-01T00:47:44.000Z</time>
      </trkpt>
      <trkpt lat="48.69245" lon="2.12623">
        <ele>143</ele>
        <time>2000-01-01T00:47:54.000Z</time>
      </trkpt>
      <trkpt lat="48.69213" lon="2.12654">
        <ele>149</ele>
        <time>2000-01-01T00:48:04.000Z</time>
      </trkpt>
      <trkpt lat="48.69228" lon="2.12614">
        <ele>154</ele>
        <time>2000-01-01T00:48:14.000Z</time>
      </trkpt>
      <trkpt lat="48.69243" lon="2.12574">
        <ele>154</ele>
        <time>2000-01-01T00:48:24.000Z</time>
      </trkpt>
      <trkpt lat="48.69259" lon="2.1253">
        <ele>153</ele>
        <time>2000-01-01T00:48:34.000Z</time>
      </trkpt>
      <trkpt lat="48.6927" lon="2.12495">
        <ele>153</ele>
        <time>2000-01-01T00:48:44.000Z</time>
      </trkpt>
      <trkpt lat="48.6929" lon="2.12446">
        <ele>155</ele>
        <time>2000-01-01T00:48:54.000Z</time>
      </trkpt>
      <trkpt lat="48.69303" lon="2.12408">
        <ele>155</ele>
        <time>2000-01-01T00:49:04.000Z</time>
      </trkpt>
      <trkpt lat="48.69317" lon="2.12374">
        <ele>156</ele>
        <time>2000-01-01T00:49:14.000Z</time>
      </trkpt>
      <trkpt lat="48.69337" lon="2.12326">
        <ele>158</ele>
        <time>2000-01-01T00:49:24.000Z</time>
      </trkpt>
      <trkpt lat="48.69359" lon="2.12273">
        <ele>157</ele>
        <time>2000-01-01T00:49:34.000Z</time>
      </trkpt>
      <trkpt lat="48.69395" lon="2.1226">
        <ele>157</ele>
        <time>2000-01-01T00:49:44.000Z</time>
      </trkpt>
      <trkpt lat="48.69423" lon="2.12249">
        <ele>153</ele>
        <time>2000-01-01T00:49:54.000Z</time>
      </trkpt>
      <trkpt lat="48.69437" lon="2.12222">
        <ele>146</ele>
        <time>2000-01-01T00:50:04.000Z</time>
      </trkpt>
      <trkpt lat="48.69443" lon="2.12187">
        <ele>145</ele>
        <time>2000-01-01T00:50:14.000Z</time>
      </trkpt>
      <trkpt lat="48.69431" lon="2.1215">
        <ele>146</ele>
        <time>2000-01-01T00:50:24.000Z</time>
      </trkpt>
      <trkpt lat="48.69415" lon="2.12103">
        <ele>147</ele>
        <time>2000-01-01T00:50:34.000Z</time>
      </trkpt>
      <trkpt lat="48.6939" lon="2.12116">
        <ele>152</ele>
        <time>2000-01-01T00:50:44.000Z</time>
      </trkpt>
      <trkpt lat="48.69353" lon="2.12135">
        <ele>153</ele>
        <time>2000-01-01T00:50:54.000Z</time>
      </trkpt>
      <trkpt lat="48.6933" lon="2.12147">
        <ele>154</ele>
        <time>2000-01-01T00:51:04.000Z</time>
      </trkpt>
      <trkpt lat="48.69304" lon="2.12161">
        <ele>154</ele>
        <time>2000-01-01T00:51:14.000Z</time>
      </trkpt>
      <trkpt lat="48.69322" lon="2.12219">
        <ele>156</ele>
        <time>2000-01-01T00:51:24.000Z</time>
      </trkpt>
      <trkpt lat="48.69315" lon="2.12254">
        <ele>159</ele>
        <time>2000-01-01T00:51:34.000Z</time>
      </trkpt>
      <trkpt lat="48.69297" lon="2.12276">
        <ele>161</ele>
        <time>2000-01-01T00:51:44.000Z</time>
      </trkpt>
      <trkpt lat="48.69273" lon="2.12303">
        <ele>162</ele>
        <time>2000-01-01T00:51:54.000Z</time>
      </trkpt>
      <trkpt lat="48.69243" lon="2.12334">
        <ele>163</ele>
        <time>2000-01-01T00:52:04.000Z</time>
      </trkpt>
      <trkpt lat="48.69227" lon="2.12361">
        <ele>163</ele>
        <time>2000-01-01T00:52:14.000Z</time>
      </trkpt>
      <trkpt lat="48.69195" lon="2.12382">
        <ele>164</ele>
        <time>2000-01-01T00:52:24.000Z</time>
      </trkpt>
      <trkpt lat="48.69184" lon="2.12442">
        <ele>164</ele>
        <time>2000-01-01T00:52:34.000Z</time>
      </trkpt>
      <trkpt lat="48.69193" lon="2.1247">
        <ele>163</ele>
        <time>2000-01-01T00:52:44.000Z</time>
      </trkpt>
      <trkpt lat="48.69212" lon="2.12489">
        <ele>162</ele>
        <time>2000-01-01T00:52:54.000Z</time>
      </trkpt>
      <trkpt lat="48.69232" lon="2.1251">
        <ele>158</ele>
        <time>2000-01-01T00:53:04.000Z</time>
      </trkpt>
      <trkpt lat="48.69258" lon="2.12529">
        <ele>158</ele>
        <time>2000-01-01T00:53:14.000Z</time>
      </trkpt>
      <trkpt lat="48.69243" lon="2.12573">
        <ele>153</ele>
        <time>2000-01-01T00:53:24.000Z</time>
      </trkpt>
      <trkpt lat="48.69228" lon="2.12612">
        <ele>153</ele>
        <time>2000-01-01T00:53:34.000Z</time>
      </trkpt>
      <trkpt lat="48.69207" lon="2.12661">
        <ele>154</ele>
        <time>2000-01-01T00:53:44.000Z</time>
      </trkpt>
      <trkpt lat="48.69213" lon="2.12709">
        <ele>154</ele>
        <time>2000-01-01T00:53:54.000Z</time>
      </trkpt>
      <trkpt lat="48.69217" lon="2.12745">
        <ele>155</ele>
        <time>2000-01-01T00:54:04.000Z</time>
      </trkpt>
      <trkpt lat="48.69222" lon="2.12786">
        <ele>155</ele>
        <time>2000-01-01T00:54:14.000Z</time>
      </trkpt>
      <trkpt lat="48.69228" lon="2.12842">
        <ele>155</ele>
        <time>2000-01-01T00:54:24.000Z</time>
      </trkpt>
      <trkpt lat="48.69234" lon="2.12886">
        <ele>155</ele>
        <time>2000-01-01T00:54:34.000Z</time>
      </trkpt>
      <trkpt lat="48.69238" lon="2.12923">
        <ele>155</ele>
        <time>2000-01-01T00:54:44.000Z</time>
      </trkpt>
      <trkpt lat="48.69243" lon="2.12962">
        <ele>155</ele>
        <time>2000-01-01T00:54:54.000Z</time>
      </trkpt>
      <trkpt lat="48.69247" lon="2.12995">
        <ele>155</ele>
        <time>2000-01-01T00:55:04.000Z</time>
      </trkpt>
      <trkpt lat="48.69254" lon="2.1304">
        <ele>155</ele>
        <time>2000-01-01T00:55:14.000Z</time>
      </trkpt>
      <trkpt lat="48.69259" lon="2.13084">
        <ele>156</ele>
        <time>2000-01-01T00:55:24.000Z</time>
      </trkpt>
      <trkpt lat="48.69267" lon="2.13149">
        <ele>155</ele>
        <time>2000-01-01T00:55:34.000Z</time>
      </trkpt>
      <trkpt lat="48.69271" lon="2.13205">
        <ele>156</ele>
        <time>2000-01-01T00:55:44.000Z</time>
      </trkpt>
      <trkpt lat="48.6927" lon="2.13254">
        <ele>157</ele>
        <time>2000-01-01T00:55:54.000Z</time>
      </trkpt>
      <trkpt lat="48.69267" lon="2.13312">
        <ele>159</ele>
        <time>2000-01-01T00:56:04.000Z</time>
      </trkpt>
      <trkpt lat="48.69262" lon="2.13346">
        <ele>161</ele>
        <time>2000-01-01T00:56:14.000Z</time>
      </trkpt>
      <trkpt lat="48.69258" lon="2.13382">
        <ele>162</ele>
        <time>2000-01-01T00:56:24.000Z</time>
      </trkpt>
      <trkpt lat="48.69248" lon="2.13441">
        <ele>163</ele>
        <time>2000-01-01T00:56:34.000Z</time>
      </trkpt>
      <trkpt lat="48.69214" lon="2.13459">
        <ele>163</ele>
        <time>2000-01-01T00:56:44.000Z</time>
      </trkpt>
      <trkpt lat="48.69182" lon="2.1347">
        <ele>163</ele>
        <time>2000-01-01T00:56:54.000Z</time>
      </trkpt>
      <trkpt lat="48.69149" lon="2.1349">
        <ele>160</ele>
        <time>2000-01-01T00:57:04.000Z</time>
      </trkpt>
      <trkpt lat="48.69124" lon="2.13506">
        <ele>158</ele>
        <time>2000-01-01T00:57:14.000Z</time>
      </trkpt>
      <trkpt lat="48.69088" lon="2.13529">
        <ele>159</ele>
        <time>2000-01-01T00:57:24.000Z</time>
      </trkpt>
      <trkpt lat="48.69063" lon="2.13546">
        <ele>161</ele>
        <time>2000-01-01T00:57:34.000Z</time>
      </trkpt>
      <trkpt lat="48.69024" lon="2.13573">
        <ele>166</ele>
        <time>2000-01-01T00:57:44.000Z</time>
      </trkpt>
      <trkpt lat="48.68995" lon="2.13592">
        <ele>170</ele>
        <time>2000-01-01T00:57:54.000Z</time>
      </trkpt>
      <trkpt lat="48.68966" lon="2.13611">
        <ele>171</ele>
        <time>2000-01-01T00:58:04.000Z</time>
      </trkpt>
      <trkpt lat="48.68945" lon="2.13625">
        <ele>173</ele>
        <time>2000-01-01T00:58:14.000Z</time>
      </trkpt>
      <trkpt lat="48.68924" lon="2.1364">
        <ele>174</ele>
        <time>2000-01-01T00:58:24.000Z</time>
      </trkpt>
      <trkpt lat="48.68898" lon="2.13658">
        <ele>174</ele>
        <time>2000-01-01T00:58:34.000Z</time>
      </trkpt>
      <trkpt lat="48.68876" lon="2.13673">
        <ele>175</ele>
        <time>2000-01-01T00:58:44.000Z</time>
      </trkpt>
      <trkpt lat="48.68852" lon="2.1369">
        <ele>175</ele>
        <time>2000-01-01T00:58:54.000Z</time>
      </trkpt>
      <trkpt lat="48.68828" lon="2.13707">
        <ele>174</ele>
        <time>2000-01-01T00:59:04.000Z</time>
      </trkpt>
      <trkpt lat="48.6879" lon="2.13733">
        <ele>173</ele>
        <time>2000-01-01T00:59:14.000Z</time>
      </trkpt>
      <trkpt lat="48.68781" lon="2.13694">
        <ele>168</ele>
        <time>2000-01-01T00:59:24.000Z</time>
      </trkpt>
      <trkpt lat="48.68772" lon="2.13637">
        <ele>168</ele>
        <time>2000-01-01T00:59:34.000Z</time>
      </trkpt>
      <trkpt lat="48.68768" lon="2.13577">
        <ele>168</ele>
        <time>2000-01-01T00:59:44.000Z</time>
      </trkpt>
      <trkpt lat="48.6876" lon="2.13522">
        <ele>166</ele>
        <time>2000-01-01T00:59:54.000Z</time>
      </trkpt>
      <trkpt lat="48.68755" lon="2.13484">
        <ele>165</ele>
        <time>2000-01-01T01:00:04.000Z</time>
      </trkpt>
      <trkpt lat="48.68747" lon="2.13434">
        <ele>163</ele>
        <time>2000-01-01T01:00:14.000Z</time>
      </trkpt>
      <trkpt lat="48.68743" lon="2.13385">
        <ele>162</ele>
        <time>2000-01-01T01:00:24.000Z</time>
      </trkpt>
      <trkpt lat="48.68738" lon="2.13335">
        <ele>161</ele>
        <time>2000-01-01T01:00:34.000Z</time>
      </trkpt>
      <trkpt lat="48.68734" lon="2.13296">
        <ele>161</ele>
        <time>2000-01-01T01:00:44.000Z</time>
      </trkpt>
      <trkpt lat="48.68729" lon="2.13241">
        <ele>157</ele>
        <time>2000-01-01T01:00:54.000Z</time>
      </trkpt>
      <trkpt lat="48.68725" lon="2.13195">
        <ele>156</ele>
        <time>2000-01-01T01:01:04.000Z</time>
      </trkpt>
      <trkpt lat="48.68721" lon="2.13148">
        <ele>156</ele>
        <time>2000-01-01T01:01:14.000Z</time>
      </trkpt>
      <trkpt lat="48.68715" lon="2.13089">
        <ele>157</ele>
        <time>2000-01-01T01:01:24.000Z</time>
      </trkpt>
      <trkpt lat="48.68709" lon="2.13046">
        <ele>157</ele>
        <time>2000-01-01T01:01:34.000Z</time>
      </trkpt>
      <trkpt lat="48.68704" lon="2.13011">
        <ele>157</ele>
        <time>2000-01-01T01:01:44.000Z</time>
      </trkpt>
      <trkpt lat="48.68698" lon="2.1297">
        <ele>156</ele>
        <time>2000-01-01T01:01:54.000Z</time>
      </trkpt>
      <trkpt lat="48.6868" lon="2.12928">
        <ele>155</ele>
        <time>2000-01-01T01:02:04.000Z</time>
      </trkpt>
      <trkpt lat="48.68662" lon="2.12885">
        <ele>155</ele>
        <time>2000-01-01T01:02:14.000Z</time>
      </trkpt>
      <trkpt lat="48.68648" lon="2.12851">
        <ele>155</ele>
        <time>2000-01-01T01:02:24.000Z</time>
      </trkpt>
      <trkpt lat="48.68627" lon="2.12801">
        <ele>153</ele>
        <time>2000-01-01T01:02:34.000Z</time>
      </trkpt>
      <trkpt lat="48.68592" lon="2.12788">
        <ele>153</ele>
        <time>2000-01-01T01:02:44.000Z</time>
      </trkpt>
      <trkpt lat="48.68594" lon="2.12826">
        <ele>147</ele>
        <time>2000-01-01T01:02:54.000Z</time>
      </trkpt>
      <trkpt lat="48.68597" lon="2.12876">
        <ele>146</ele>
        <time>2000-01-01T01:03:04.000Z</time>
      </trkpt>
      <trkpt lat="48.68591" lon="2.1292">
        <ele>146</ele>
        <time>2000-01-01T01:03:14.000Z</time>
      </trkpt>
      <trkpt lat="48.68589" lon="2.12973">
        <ele>146</ele>
        <time>2000-01-01T01:03:24.000Z</time>
      </trkpt>
      <trkpt lat="48.68594" lon="2.13038">
        <ele>144</ele>
        <time>2000-01-01T01:03:34.000Z</time>
      </trkpt>
      <trkpt lat="48.68615" lon="2.13046">
        <ele>141</ele>
        <time>2000-01-01T01:03:44.000Z</time>
      </trkpt>
      <trkpt lat="48.68622" lon="2.13093">
        <ele>141</ele>
        <time>2000-01-01T01:03:54.000Z</time>
      </trkpt>
      <trkpt lat="48.68629" lon="2.1314">
        <ele>139</ele>
        <time>2000-01-01T01:04:04.000Z</time>
      </trkpt>
      <trkpt lat="48.68634" lon="2.13173">
        <ele>139</ele>
        <time>2000-01-01T01:04:14.000Z</time>
      </trkpt>
      <trkpt lat="48.6864" lon="2.13208">
        <ele>137</ele>
        <time>2000-01-01T01:04:24.000Z</time>
      </trkpt>
      <trkpt lat="48.68645" lon="2.13262">
        <ele>135</ele>
        <time>2000-01-01T01:04:34.000Z</time>
      </trkpt>
      <trkpt lat="48.68643" lon="2.13325">
        <ele>133</ele>
        <time>2000-01-01T01:04:44.000Z</time>
      </trkpt>
      <trkpt lat="48.68639" lon="2.13359">
        <ele>130</ele>
        <time>2000-01-01T01:04:54.000Z</time>
      </trkpt>
      <trkpt lat="48.68634" lon="2.13394">
        <ele>129</ele>
        <time>2000-01-01T01:05:04.000Z</time>
      </trkpt>
      <trkpt lat="48.68627" lon="2.13435">
        <ele>128</ele>
        <time>2000-01-01T01:05:14.000Z</time>
      </trkpt>
      <trkpt lat="48.68621" lon="2.13469">
        <ele>128</ele>
        <time>2000-01-01T01:05:24.000Z</time>
      </trkpt>
      <trkpt lat="48.68614" lon="2.13507">
        <ele>124</ele>
        <time>2000-01-01T01:05:34.000Z</time>
      </trkpt>
      <trkpt lat="48.68586" lon="2.13552">
        <ele>124</ele>
        <time>2000-01-01T01:05:44.000Z</time>
      </trkpt>
      <trkpt lat="48.68588" lon="2.1359">
        <ele>123</ele>
        <time>2000-01-01T01:05:54.000Z</time>
      </trkpt>
      <trkpt lat="48.68591" lon="2.13637">
        <ele>123</ele>
        <time>2000-01-01T01:06:04.000Z</time>
      </trkpt>
      <trkpt lat="48.68595" lon="2.13694">
        <ele>123</ele>
        <time>2000-01-01T01:06:14.000Z</time>
      </trkpt>
      <trkpt lat="48.68574" lon="2.13716">
        <ele>123</ele>
        <time>2000-01-01T01:06:24.000Z</time>
      </trkpt>
      <trkpt lat="48.68548" lon="2.13744">
        <ele>123</ele>
        <time>2000-01-01T01:06:34.000Z</time>
      </trkpt>
      <trkpt lat="48.6852" lon="2.13775">
        <ele>122</ele>
        <time>2000-01-01T01:06:44.000Z</time>
      </trkpt>
      <trkpt lat="48.68495" lon="2.13802">
        <ele>122</ele>
        <time>2000-01-01T01:06:54.000Z</time>
      </trkpt>
      <trkpt lat="48.68475" lon="2.13826">
        <ele>123</ele>
        <time>2000-01-01T01:07:04.000Z</time>
      </trkpt>
      <trkpt lat="48.68451" lon="2.13867">
        <ele>125</ele>
        <time>2000-01-01T01:07:14.000Z</time>
      </trkpt>
      <trkpt lat="48.68426" lon="2.13913">
        <ele>127</ele>
        <time>2000-01-01T01:07:24.000Z</time>
      </trkpt>
      <trkpt lat="48.68401" lon="2.13946">
        <ele>127</ele>
        <time>2000-01-01T01:07:34.000Z</time>
      </trkpt>
      <trkpt lat="48.68373" lon="2.13979">
        <ele>128</ele>
        <time>2000-01-01T01:07:44.000Z</time>
      </trkpt>
      <trkpt lat="48.68351" lon="2.13999">
        <ele>127</ele>
        <time>2000-01-01T01:07:54.000Z</time>
      </trkpt>
      <trkpt lat="48.68342" lon="2.13978">
        <ele>133.6</ele>
        <time>2000-01-01T01:08:04.000Z</time>
      </trkpt>
      <trkpt lat="48.68343" lon="2.13943">
        <ele>129</ele>
        <time>2000-01-01T01:08:14.000Z</time>
      </trkpt>
      <trkpt lat="48.68339" lon="2.13913">
        <ele>132</ele>
        <time>2000-01-01T01:08:24.000Z</time>
      </trkpt>
      <trkpt lat="48.68336" lon="2.1389">
        <ele>140.6</ele>
        <time>2000-01-01T01:08:34.000Z</time>
      </trkpt>
      <trkpt lat="48.68331" lon="2.13841">
        <ele>134</ele>
        <time>2000-01-01T01:08:44.000Z</time>
      </trkpt>
      <trkpt lat="48.68329" lon="2.13812">
        <ele>137</ele>
        <time>2000-01-01T01:08:54.000Z</time>
      </trkpt>
      <trkpt lat="48.68321" lon="2.13798">
        <ele>148.3</ele>
        <time>2000-01-01T01:09:04.000Z</time>
      </trkpt>
      <trkpt lat="48.68312" lon="2.13791">
        <ele>137</ele>
        <time>2000-01-01T01:09:14.000Z</time>
      </trkpt>
      <trkpt lat="48.68286" lon="2.13766">
        <ele>139</ele>
        <time>2000-01-01T01:09:24.000Z</time>
      </trkpt>
      <trkpt lat="48.68249" lon="2.13742">
        <ele>141</ele>
        <time>2000-01-01T01:09:34.000Z</time>
      </trkpt>
      <trkpt lat="48.68215" lon="2.13735">
        <ele>143</ele>
        <time>2000-01-01T01:09:44.000Z</time>
      </trkpt>
      <trkpt lat="48.68192" lon="2.13733">
        <ele>146</ele>
        <time>2000-01-01T01:09:54.000Z</time>
      </trkpt>
      <trkpt lat="48.68169" lon="2.13731">
        <ele>147</ele>
        <time>2000-01-01T01:10:04.000Z</time>
      </trkpt>
      <trkpt lat="48.68149" lon="2.13731">
        <ele>148</ele>
        <time>2000-01-01T01:10:14.000Z</time>
      </trkpt>
      <trkpt lat="48.6813" lon="2.13723">
        <ele>149</ele>
        <time>2000-01-01T01:10:24.000Z</time>
      </trkpt>
      <trkpt lat="48.68107" lon="2.13708">
        <ele>149</ele>
        <time>2000-01-01T01:10:34.000Z</time>
      </trkpt>
      <trkpt lat="48.68078" lon="2.1369">
        <ele>151</ele>
        <time>2000-01-01T01:10:44.000Z</time>
      </trkpt>
      <trkpt lat="48.68044" lon="2.13657">
        <ele>151</ele>
        <time>2000-01-01T01:10:54.000Z</time>
      </trkpt>
      <trkpt lat="48.68006" lon="2.13629">
        <ele>151</ele>
        <time>2000-01-01T01:11:04.000Z</time>
      </trkpt>
      <trkpt lat="48.67985" lon="2.13615">
        <ele>149</ele>
        <time>2000-01-01T01:11:14.000Z</time>
      </trkpt>
      <trkpt lat="48.67965" lon="2.13602">
        <ele>148</ele>
        <time>2000-01-01T01:11:24.000Z</time>
      </trkpt>
      <trkpt lat="48.67937" lon="2.13584">
        <ele>148</ele>
        <time>2000-01-01T01:11:34.000Z</time>
      </trkpt>
      <trkpt lat="48.67898" lon="2.13566">
        <ele>148</ele>
        <time>2000-01-01T01:11:44.000Z</time>
      </trkpt>
      <trkpt lat="48.67869" lon="2.13553">
        <ele>148</ele>
        <time>2000-01-01T01:11:54.000Z</time>
      </trkpt>
      <trkpt lat="48.67836" lon="2.13556">
        <ele>149</ele>
        <time>2000-01-01T01:12:04.000Z</time>
      </trkpt>
      <trkpt lat="48.67824" lon="2.13573">
        <ele>149.7</ele>
        <time>2000-01-01T01:12:14.000Z</time>
      </trkpt>
      <trkpt lat="48.67815" lon="2.13569">
        <ele>150</ele>
        <time>2000-01-01T01:12:24.000Z</time>
      </trkpt>
      <trkpt lat="48.67791" lon="2.13544">
        <ele>152</ele>
        <time>2000-01-01T01:12:34.000Z</time>
      </trkpt>
      <trkpt lat="48.67787" lon="2.13543">
        <ele>151.8</ele>
        <time>2000-01-01T01:12:44.000Z</time>
      </trkpt>
      <trkpt lat="48.67809" lon="2.13591">
        <ele>152</ele>
        <time>2000-01-01T01:12:54.000Z</time>
      </trkpt>
      <trkpt lat="48.67827" lon="2.1363">
        <ele>152</ele>
        <time>2000-01-01T01:13:04.000Z</time>
      </trkpt>
      <trkpt lat="48.67818" lon="2.13665">
        <ele>150</ele>
        <time>2000-01-01T01:13:14.000Z</time>
      </trkpt>
      <trkpt lat="48.67806" lon="2.13711">
        <ele>149</ele>
        <time>2000-01-01T01:13:24.000Z</time>
      </trkpt>
      <trkpt lat="48.67806" lon="2.13739">
        <ele>148</ele>
        <time>2000-01-01T01:13:34.000Z</time>
      </trkpt>
      <trkpt lat="48.67785" lon="2.13778">
        <ele>148</ele>
        <time>2000-01-01T01:13:44.000Z</time>
      </trkpt>
      <trkpt lat="48.67775" lon="2.13793">
        <ele>155.2</ele>
        <time>2000-01-01T01:13:54.000Z</time>
      </trkpt>
      <trkpt lat="48.67766" lon="2.1379">
        <ele>150</ele>
        <time>2000-01-01T01:14:04.000Z</time>
      </trkpt>
      <trkpt lat="48.6774" lon="2.1379">
        <ele>150</ele>
        <time>2000-01-01T01:14:14.000Z</time>
      </trkpt>
      <trkpt lat="48.6772" lon="2.13789">
        <ele>151</ele>
        <time>2000-01-01T01:14:24.000Z</time>
      </trkpt>
      <trkpt lat="48.6772" lon="2.13842">
        <ele>151</ele>
        <time>2000-01-01T01:14:34.000Z</time>
      </trkpt>
      <trkpt lat="48.67723" lon="2.13886">
        <ele>150</ele>
        <time>2000-01-01T01:14:44.000Z</time>
      </trkpt>
      <trkpt lat="48.67726" lon="2.13933">
        <ele>148</ele>
        <time>2000-01-01T01:14:54.000Z</time>
      </trkpt>
      <trkpt lat="48.67737" lon="2.13959">
        <ele>145</ele>
        <time>2000-01-01T01:15:04.000Z</time>
      </trkpt>
      <trkpt lat="48.67748" lon="2.13973">
        <ele>143.8</ele>
        <time>2000-01-01T01:15:14.000Z</time>
      </trkpt>
      <trkpt lat="48.67788" lon="2.14">
        <ele>141</ele>
        <time>2000-01-01T01:15:24.000Z</time>
      </trkpt>
      <trkpt lat="48.67766" lon="2.14036">
        <ele>138</ele>
        <time>2000-01-01T01:15:34.000Z</time>
      </trkpt>
      <trkpt lat="48.67744" lon="2.14077">
        <ele>136</ele>
        <time>2000-01-01T01:15:44.000Z</time>
      </trkpt>
      <trkpt lat="48.67719" lon="2.14098">
        <ele>129</ele>
        <time>2000-01-01T01:15:54.000Z</time>
      </trkpt>
      <trkpt lat="48.67701" lon="2.14085">
        <ele>130</ele>
        <time>2000-01-01T01:16:04.000Z</time>
      </trkpt>
      <trkpt lat="48.67681" lon="2.1407">
        <ele>131</ele>
        <time>2000-01-01T01:16:14.000Z</time>
      </trkpt>
      <trkpt lat="48.67661" lon="2.14105">
        <ele>131</ele>
        <time>2000-01-01T01:16:24.000Z</time>
      </trkpt>
      <trkpt lat="48.67648" lon="2.14128">
        <ele>133</ele>
        <time>2000-01-01T01:16:34.000Z</time>
      </trkpt>
      <trkpt lat="48.67631" lon="2.14157">
        <ele>138</ele>
        <time>2000-01-01T01:16:44.000Z</time>
      </trkpt>
      <trkpt lat="48.67611" lon="2.14205">
        <ele>139</ele>
        <time>2000-01-01T01:16:54.000Z</time>
      </trkpt>
      <trkpt lat="48.67595" lon="2.14208">
        <ele>150.6</ele>
        <time>2000-01-01T01:17:04.000Z</time>
      </trkpt>
      <trkpt lat="48.67584" lon="2.14238">
        <ele>145</ele>
        <time>2000-01-01T01:17:14.000Z</time>
      </trkpt>
      <trkpt lat="48.67574" lon="2.1425">
        <ele>155.3</ele>
        <time>2000-01-01T01:17:24.000Z</time>
      </trkpt>
      <trkpt lat="48.67591" lon="2.1428">
        <ele>151</ele>
        <time>2000-01-01T01:17:34.000Z</time>
      </trkpt>
      <trkpt lat="48.67616" lon="2.14324">
        <ele>153</ele>
        <time>2000-01-01T01:17:44.000Z</time>
      </trkpt>
      <trkpt lat="48.67628" lon="2.14353">
        <ele>156</ele>
        <time>2000-01-01T01:17:54.000Z</time>
      </trkpt>
      <trkpt lat="48.67644" lon="2.14381">
        <ele>157</ele>
        <time>2000-01-01T01:18:04.000Z</time>
      </trkpt>
      <trkpt lat="48.6767" lon="2.14406">
        <ele>158</ele>
        <time>2000-01-01T01:18:14.000Z</time>
      </trkpt>
      <trkpt lat="48.67695" lon="2.14432">
        <ele>158</ele>
        <time>2000-01-01T01:18:24.000Z</time>
      </trkpt>
      <trkpt lat="48.67726" lon="2.14463">
        <ele>158</ele>
        <time>2000-01-01T01:18:34.000Z</time>
      </trkpt>
      <trkpt lat="48.67752" lon="2.14485">
        <ele>155</ele>
        <time>2000-01-01T01:18:44.000Z</time>
      </trkpt>
      <trkpt lat="48.67779" lon="2.1451">
        <ele>152</ele>
        <time>2000-01-01T01:18:54.000Z</time>
      </trkpt>
      <trkpt lat="48.67803" lon="2.14527">
        <ele>150</ele>
        <time>2000-01-01T01:19:04.000Z</time>
      </trkpt>
      <trkpt lat="48.67822" lon="2.14495">
        <ele>148</ele>
        <time>2000-01-01T01:19:14.000Z</time>
      </trkpt>
      <trkpt lat="48.67837" lon="2.14469">
        <ele>146</ele>
        <time>2000-01-01T01:19:24.000Z</time>
      </trkpt>
      <trkpt lat="48.67852" lon="2.14441">
        <ele>145</ele>
        <time>2000-01-01T01:19:34.000Z</time>
      </trkpt>
      <trkpt lat="48.6786" lon="2.1444">
        <ele>140.8</ele>
        <time>2000-01-01T01:19:44.000Z</time>
      </trkpt>
      <trkpt lat="48.67871" lon="2.14446">
        <ele>139</ele>
        <time>2000-01-01T01:19:54.000Z</time>
      </trkpt>
      <trkpt lat="48.67886" lon="2.14445">
        <ele>131.2</ele>
        <time>2000-01-01T01:20:04.000Z</time>
      </trkpt>
      <trkpt lat="48.67917" lon="2.14419">
        <ele>139</ele>
        <time>2000-01-01T01:20:14.000Z</time>
      </trkpt>
      <trkpt lat="48.67936" lon="2.14381">
        <ele>125</ele>
        <time>2000-01-01T01:20:24.000Z</time>
      </trkpt>
      <trkpt lat="48.67968" lon="2.1434">
        <ele>118</ele>
        <time>2000-01-01T01:20:34.000Z</time>
      </trkpt>
      <trkpt lat="48.67979" lon="2.14308">
        <ele>113</ele>
        <time>2000-01-01T01:20:44.000Z</time>
      </trkpt>
      <trkpt lat="48.67991" lon="2.14273">
        <ele>113</ele>
        <time>2000-01-01T01:20:54.000Z</time>
      </trkpt>
      <trkpt lat="48.67991" lon="2.14251">
        <ele>109.3</ele>
        <time>2000-01-01T01:21:04.000Z</time>
      </trkpt>
      <trkpt lat="48.68025" lon="2.14232">
        <ele>111</ele>
        <time>2000-01-01T01:21:14.000Z</time>
      </trkpt>
      <trkpt lat="48.68036" lon="2.14267">
        <ele>109</ele>
        <time>2000-01-01T01:21:24.000Z</time>
      </trkpt>
      <trkpt lat="48.68048" lon="2.14312">
        <ele>108</ele>
        <time>2000-01-01T01:21:34.000Z</time>
      </trkpt>
      <trkpt lat="48.68056" lon="2.14346">
        <ele>106</ele>
        <time>2000-01-01T01:21:44.000Z</time>
      </trkpt>
      <trkpt lat="48.68066" lon="2.14386">
        <ele>105</ele>
        <time>2000-01-01T01:21:54.000Z</time>
      </trkpt>
      <trkpt lat="48.68065" lon="2.1444">
        <ele>104</ele>
        <time>2000-01-01T01:22:04.000Z</time>
      </trkpt>
      <trkpt lat="48.68069" lon="2.14492">
        <ele>104</ele>
        <time>2000-01-01T01:22:14.000Z</time>
      </trkpt>
      <trkpt lat="48.68069" lon="2.14527">
        <ele>105</ele>
        <time>2000-01-01T01:22:24.000Z</time>
      </trkpt>
      <trkpt lat="48.68069" lon="2.14565">
        <ele>107</ele>
        <time>2000-01-01T01:22:34.000Z</time>
      </trkpt>
      <trkpt lat="48.68083" lon="2.14601">
        <ele>109</ele>
        <time>2000-01-01T01:22:44.000Z</time>
      </trkpt>
      <trkpt lat="48.68079" lon="2.14642">
        <ele>109</ele>
        <time>2000-01-01T01:22:54.000Z</time>
      </trkpt>
      <trkpt lat="48.68083" lon="2.14681">
        <ele>112</ele>
        <time>2000-01-01T01:23:04.000Z</time>
      </trkpt>
      <trkpt lat="48.68089" lon="2.14714">
        <ele>115</ele>
        <time>2000-01-01T01:23:14.000Z</time>
      </trkpt>
      <trkpt lat="48.68095" lon="2.14747">
        <ele>116</ele>
        <time>2000-01-01T01:23:24.000Z</time>
      </trkpt>
      <trkpt lat="48.68089" lon="2.14766">
        <ele>119.2</ele>
        <time>2000-01-01T01:23:34.000Z</time>
      </trkpt>
      <trkpt lat="48.68064" lon="2.14793">
        <ele>117</ele>
        <time>2000-01-01T01:23:44.000Z</time>
      </trkpt>
      <trkpt lat="48.68039" lon="2.14821">
        <ele>117</ele>
        <time>2000-01-01T01:23:54.000Z</time>
      </trkpt>
      <trkpt lat="48.6801" lon="2.14854">
        <ele>118</ele>
        <time>2000-01-01T01:24:04.000Z</time>
      </trkpt>
      <trkpt lat="48.68" lon="2.1489">
        <ele>117</ele>
        <time>2000-01-01T01:24:14.000Z</time>
      </trkpt>
      <trkpt lat="48.67987" lon="2.14938">
        <ele>116</ele>
        <time>2000-01-01T01:24:24.000Z</time>
      </trkpt>
      <trkpt lat="48.67973" lon="2.14982">
        <ele>111</ele>
        <time>2000-01-01T01:24:34.000Z</time>
      </trkpt>
      <trkpt lat="48.67962" lon="2.1502">
        <ele>111</ele>
        <time>2000-01-01T01:24:44.000Z</time>
      </trkpt>
      <trkpt lat="48.67949" lon="2.15045">
        <ele>110</ele>
        <time>2000-01-01T01:24:54.000Z</time>
      </trkpt>
      <trkpt lat="48.67938" lon="2.15098">
        <ele>109</ele>
        <time>2000-01-01T01:25:04.000Z</time>
      </trkpt>
      <trkpt lat="48.67929" lon="2.15151">
        <ele>109</ele>
        <time>2000-01-01T01:25:14.000Z</time>
      </trkpt>
      <trkpt lat="48.67913" lon="2.15199">
        <ele>112</ele>
        <time>2000-01-01T01:25:24.000Z</time>
      </trkpt>
      <trkpt lat="48.67897" lon="2.15241">
        <ele>118</ele>
        <time>2000-01-01T01:25:34.000Z</time>
      </trkpt>
      <trkpt lat="48.67887" lon="2.15262">
        <ele>111.5</ele>
        <time>2000-01-01T01:25:44.000Z</time>
      </trkpt>
      <trkpt lat="48.67878" lon="2.15274">
        <ele>129</ele>
        <time>2000-01-01T01:25:54.000Z</time>
      </trkpt>
      <trkpt lat="48.67879" lon="2.15297">
        <ele>114.9</ele>
        <time>2000-01-01T01:26:04.000Z</time>
      </trkpt>
      <trkpt lat="48.67854" lon="2.1533">
        <ele>133</ele>
        <time>2000-01-01T01:26:14.000Z</time>
      </trkpt>
      <trkpt lat="48.67829" lon="2.15359">
        <ele>139</ele>
        <time>2000-01-01T01:26:24.000Z</time>
      </trkpt>
      <trkpt lat="48.67807" lon="2.1539">
        <ele>139</ele>
        <time>2000-01-01T01:26:34.000Z</time>
      </trkpt>
      <trkpt lat="48.67784" lon="2.15418">
        <ele>140</ele>
        <time>2000-01-01T01:26:44.000Z</time>
      </trkpt>
      <trkpt lat="48.67763" lon="2.15446">
        <ele>141</ele>
        <time>2000-01-01T01:26:54.000Z</time>
      </trkpt>
      <trkpt lat="48.67745" lon="2.15469">
        <ele>141</ele>
        <time>2000-01-01T01:27:04.000Z</time>
      </trkpt>
      <trkpt lat="48.67725" lon="2.15494">
        <ele>144</ele>
        <time>2000-01-01T01:27:14.000Z</time>
      </trkpt>
      <trkpt lat="48.67745" lon="2.1553">
        <ele>145</ele>
        <time>2000-01-01T01:27:24.000Z</time>
      </trkpt>
      <trkpt lat="48.67784" lon="2.15551">
        <ele>149</ele>
        <time>2000-01-01T01:27:34.000Z</time>
      </trkpt>
      <trkpt lat="48.67809" lon="2.15551">
        <ele>149</ele>
        <time>2000-01-01T01:27:44.000Z</time>
      </trkpt>
      <trkpt lat="48.67828" lon="2.15598">
        <ele>150</ele>
        <time>2000-01-01T01:27:54.000Z</time>
      </trkpt>
      <trkpt lat="48.67863" lon="2.15624">
        <ele>151</ele>
        <time>2000-01-01T01:28:04.000Z</time>
      </trkpt>
      <trkpt lat="48.67885" lon="2.15612">
        <ele>152</ele>
        <time>2000-01-01T01:28:14.000Z</time>
      </trkpt>
      <trkpt lat="48.67907" lon="2.156">
        <ele>155</ele>
        <time>2000-01-01T01:28:24.000Z</time>
      </trkpt>
      <trkpt lat="48.67929" lon="2.15581">
        <ele>157</ele>
        <time>2000-01-01T01:28:34.000Z</time>
      </trkpt>
      <trkpt lat="48.67961" lon="2.15549">
        <ele>157</ele>
        <time>2000-01-01T01:28:44.000Z</time>
      </trkpt>
      <trkpt lat="48.67985" lon="2.15523">
        <ele>159</ele>
        <time>2000-01-01T01:28:54.000Z</time>
      </trkpt>
      <trkpt lat="48.68014" lon="2.15495">
        <ele>159</ele>
        <time>2000-01-01T01:29:04.000Z</time>
      </trkpt>
      <trkpt lat="48.68024" lon="2.15455">
        <ele>158</ele>
        <time>2000-01-01T01:29:14.000Z</time>
      </trkpt>
      <trkpt lat="48.68039" lon="2.15394">
        <ele>155</ele>
        <time>2000-01-01T01:29:24.000Z</time>
      </trkpt>
      <trkpt lat="48.68016" lon="2.15369">
        <ele>150</ele>
        <time>2000-01-01T01:29:34.000Z</time>
      </trkpt>
      <trkpt lat="48.68008" lon="2.15352">
        <ele>146.9</ele>
        <time>2000-01-01T01:29:44.000Z</time>
      </trkpt>
      <trkpt lat="48.67985" lon="2.15338">
        <ele>146</ele>
        <time>2000-01-01T01:29:54.000Z</time>
      </trkpt>
      <trkpt lat="48.67957" lon="2.15321">
        <ele>142</ele>
        <time>2000-01-01T01:30:04.000Z</time>
      </trkpt>
      <trkpt lat="48.67932" lon="2.15312">
        <ele>142</ele>
        <time>2000-01-01T01:30:14.000Z</time>
      </trkpt>
      <trkpt lat="48.679" lon="2.1528">
        <ele>137</ele>
        <time>2000-01-01T01:30:24.000Z</time>
      </trkpt>
      <trkpt lat="48.67918" lon="2.15259">
        <ele>133</ele>
        <time>2000-01-01T01:30:34.000Z</time>
      </trkpt>
      <trkpt lat="48.67941" lon="2.15233">
        <ele>128</ele>
        <time>2000-01-01T01:30:44.000Z</time>
      </trkpt>
      <trkpt lat="48.67965" lon="2.15211">
        <ele>121</ele>
        <time>2000-01-01T01:30:54.000Z</time>
      </trkpt>
      <trkpt lat="48.67979" lon="2.15189">
        <ele>120</ele>
        <time>2000-01-01T01:31:04.000Z</time>
      </trkpt>
      <trkpt lat="48.67993" lon="2.15179">
        <ele>106.5</ele>
        <time>2000-01-01T01:31:14.000Z</time>
      </trkpt>
      <trkpt lat="48.68017" lon="2.15177">
        <ele>115</ele>
        <time>2000-01-01T01:31:24.000Z</time>
      </trkpt>
      <trkpt lat="48.68043" lon="2.15179">
        <ele>114</ele>
        <time>2000-01-01T01:31:34.000Z</time>
      </trkpt>
      <trkpt lat="48.68079" lon="2.15181">
        <ele>115</ele>
        <time>2000-01-01T01:31:44.000Z</time>
      </trkpt>
      <trkpt lat="48.68104" lon="2.1519">
        <ele>117</ele>
        <time>2000-01-01T01:31:54.000Z</time>
      </trkpt>
      <trkpt lat="48.68136" lon="2.15202">
        <ele>117</ele>
        <time>2000-01-01T01:32:04.000Z</time>
      </trkpt>
      <trkpt lat="48.68157" lon="2.15226">
        <ele>117</ele>
        <time>2000-01-01T01:32:14.000Z</time>
      </trkpt>
      <trkpt lat="48.68188" lon="2.15262">
        <ele>119</ele>
        <time>2000-01-01T01:32:24.000Z</time>
      </trkpt>
      <trkpt lat="48.68209" lon="2.15282">
        <ele>122</ele>
        <time>2000-01-01T01:32:34.000Z</time>
      </trkpt>
      <trkpt lat="48.68237" lon="2.15309">
        <ele>125</ele>
        <time>2000-01-01T01:32:44.000Z</time>
      </trkpt>
      <trkpt lat="48.68259" lon="2.15342">
        <ele>127</ele>
        <time>2000-01-01T01:32:54.000Z</time>
      </trkpt>
      <trkpt lat="48.6828" lon="2.15375">
        <ele>131</ele>
        <time>2000-01-01T01:33:04.000Z</time>
      </trkpt>
      <trkpt lat="48.68307" lon="2.15414">
        <ele>133</ele>
        <time>2000-01-01T01:33:14.000Z</time>
      </trkpt>
      <trkpt lat="48.68313" lon="2.15448">
        <ele>138</ele>
        <time>2000-01-01T01:33:24.000Z</time>
      </trkpt>
      <trkpt lat="48.68321" lon="2.15487">
        <ele>141</ele>
        <time>2000-01-01T01:33:34.000Z</time>
      </trkpt>
      <trkpt lat="48.68348" lon="2.1547">
        <ele>141</ele>
        <time>2000-01-01T01:33:44.000Z</time>
      </trkpt>
      <trkpt lat="48.68373" lon="2.15477">
        <ele>142</ele>
        <time>2000-01-01T01:33:54.000Z</time>
      </trkpt>
      <trkpt lat="48.68397" lon="2.1553">
        <ele>142</ele>
        <time>2000-01-01T01:34:04.000Z</time>
      </trkpt>
      <trkpt lat="48.68395" lon="2.15569">
        <ele>144</ele>
        <time>2000-01-01T01:34:14.000Z</time>
      </trkpt>
      <trkpt lat="48.68392" lon="2.15626">
        <ele>147</ele>
        <time>2000-01-01T01:34:24.000Z</time>
      </trkpt>
      <trkpt lat="48.68419" lon="2.1565">
        <ele>148</ele>
        <time>2000-01-01T01:34:34.000Z</time>
      </trkpt>
      <trkpt lat="48.68446" lon="2.15673">
        <ele>148</ele>
        <time>2000-01-01T01:34:44.000Z</time>
      </trkpt>
      <trkpt lat="48.68482" lon="2.15705">
        <ele>148</ele>
        <time>2000-01-01T01:34:54.000Z</time>
      </trkpt>
      <trkpt lat="48.68512" lon="2.15694">
        <ele>147</ele>
        <time>2000-01-01T01:35:04.000Z</time>
      </trkpt>
      <trkpt lat="48.68541" lon="2.15683">
        <ele>144</ele>
        <time>2000-01-01T01:35:14.000Z</time>
      </trkpt>
      <trkpt lat="48.68575" lon="2.1567">
        <ele>140</ele>
        <time>2000-01-01T01:35:24.000Z</time>
      </trkpt>
      <trkpt lat="48.68597" lon="2.15672">
        <ele>128</ele>
        <time>2000-01-01T01:35:34.000Z</time>
      </trkpt>
      <trkpt lat="48.6862" lon="2.15673">
        <ele>128</ele>
        <time>2000-01-01T01:35:44.000Z</time>
      </trkpt>
      <trkpt lat="48.68643" lon="2.15708">
        <ele>123</ele>
        <time>2000-01-01T01:35:54.000Z</time>
      </trkpt>
      <trkpt lat="48.68679" lon="2.15721">
        <ele>121</ele>
        <time>2000-01-01T01:36:04.000Z</time>
      </trkpt>
      <trkpt lat="48.68716" lon="2.15708">
        <ele>119</ele>
        <time>2000-01-01T01:36:14.000Z</time>
      </trkpt>
      <trkpt lat="48.68742" lon="2.15708">
        <ele>110</ele>
        <time>2000-01-01T01:36:24.000Z</time>
      </trkpt>
      <trkpt lat="48.68783" lon="2.15708">
        <ele>108</ele>
        <time>2000-01-01T01:36:34.000Z</time>
      </trkpt>
      <trkpt lat="48.68823" lon="2.15728">
        <ele>106</ele>
        <time>2000-01-01T01:36:44.000Z</time>
      </trkpt>
      <trkpt lat="48.68852" lon="2.15743">
        <ele>106</ele>
        <time>2000-01-01T01:36:54.000Z</time>
      </trkpt>
      <trkpt lat="48.6888" lon="2.15758">
        <ele>106</ele>
        <time>2000-01-01T01:37:04.000Z</time>
      </trkpt>
      <trkpt lat="48.68911" lon="2.15775">
        <ele>105</ele>
        <time>2000-01-01T01:37:14.000Z</time>
      </trkpt>
      <trkpt lat="48.68938" lon="2.1579">
        <ele>104</ele>
        <time>2000-01-01T01:37:24.000Z</time>
      </trkpt>
      <trkpt lat="48.6896" lon="2.15802">
        <ele>105</ele>
        <time>2000-01-01T01:37:34.000Z</time>
      </trkpt>
      <trkpt lat="48.68986" lon="2.15816">
        <ele>106</ele>
        <time>2000-01-01T01:37:44.000Z</time>
      </trkpt>
      <trkpt lat="48.68995" lon="2.15812">
        <ele>101.8</ele>
        <time>2000-01-01T01:37:54.000Z</time>
      </trkpt>
      <trkpt lat="48.69021" lon="2.15839">
        <ele>106</ele>
        <time>2000-01-01T01:38:04.000Z</time>
      </trkpt>
      <trkpt lat="48.69054" lon="2.15869">
        <ele>106</ele>
        <time>2000-01-01T01:38:14.000Z</time>
      </trkpt>
      <trkpt lat="48.69086" lon="2.15895">
        <ele>107</ele>
        <time>2000-01-01T01:38:24.000Z</time>
      </trkpt>
      <trkpt lat="48.69113" lon="2.15924">
        <ele>107</ele>
        <time>2000-01-01T01:38:34.000Z</time>
      </trkpt>
      <trkpt lat="48.6914" lon="2.15949">
        <ele>106</ele>
        <time>2000-01-01T01:38:44.000Z</time>
      </trkpt>
      <trkpt lat="48.69156" lon="2.15971">
        <ele>104</ele>
        <time>2000-01-01T01:38:54.000Z</time>
      </trkpt>
      <trkpt lat="48.69182" lon="2.16008">
        <ele>101</ele>
        <time>2000-01-01T01:39:04.000Z</time>
      </trkpt>
      <trkpt lat="48.69205" lon="2.16038">
        <ele>99</ele>
        <time>2000-01-01T01:39:14.000Z</time>
      </trkpt>
      <trkpt lat="48.69213" lon="2.16049">
        <ele>94.4</ele>
        <time>2000-01-01T01:39:24.000Z</time>
      </trkpt>
      <trkpt lat="48.69223" lon="2.16059">
        <ele>98</ele>
        <time>2000-01-01T01:39:34.000Z</time>
      </trkpt>
      <trkpt lat="48.69245" lon="2.16063">
        <ele>96</ele>
        <time>2000-01-01T01:39:44.000Z</time>
      </trkpt>
      <trkpt lat="48.69262" lon="2.16089">
        <ele>93</ele>
        <time>2000-01-01T01:39:54.000Z</time>
      </trkpt>
      <trkpt lat="48.6927" lon="2.16081">
        <ele>93.9</ele>
        <time>2000-01-01T01:40:04.000Z</time>
      </trkpt>
      <trkpt lat="48.69278" lon="2.16082">
        <ele>93.9</ele>
        <time>2000-01-01T01:40:14.000Z</time>
      </trkpt>
      <trkpt lat="48.69328" lon="2.16024">
        <ele>93</ele>
        <time>2000-01-01T01:40:24.000Z</time>
      </trkpt>
      <trkpt lat="48.69344" lon="2.16002">
        <ele>84</ele>
        <time>2000-01-01T01:40:34.000Z</time>
      </trkpt>
      <trkpt lat="48.69365" lon="2.1597">
        <ele>82</ele>
        <time>2000-01-01T01:40:44.000Z</time>
      </trkpt>
      <trkpt lat="48.69368" lon="2.15948">
        <ele>84.7</ele>
        <time>2000-01-01T01:40:54.000Z</time>
      </trkpt>
      <trkpt lat="48.69368" lon="2.15907">
        <ele>80</ele>
        <time>2000-01-01T01:41:04.000Z</time>
      </trkpt>
      <trkpt lat="48.69369" lon="2.15868">
        <ele>76</ele>
        <time>2000-01-01T01:41:14.000Z</time>
      </trkpt>
      <trkpt lat="48.69374" lon="2.15853">
        <ele>79.9</ele>
        <time>2000-01-01T01:41:24.000Z</time>
      </trkpt>
      <trkpt lat="48.69407" lon="2.15849">
        <ele>73</ele>
        <time>2000-01-01T01:41:34.000Z</time>
      </trkpt>
      <trkpt lat="48.69423" lon="2.15898">
        <ele>73</ele>
        <time>2000-01-01T01:41:44.000Z</time>
      </trkpt>
      <trkpt lat="48.69438" lon="2.15883">
        <ele>73</ele>
        <time>2000-01-01T01:41:54.000Z</time>
      </trkpt>
      <trkpt lat="48.69447" lon="2.15877">
        <ele>71.8</ele>
        <time>2000-01-01T01:42:04.000Z</time>
      </trkpt>
      <trkpt lat="48.69465" lon="2.15914">
        <ele>71</ele>
        <time>2000-01-01T01:42:14.000Z</time>
      </trkpt>
      <trkpt lat="48.69484" lon="2.15958">
        <ele>71</ele>
        <time>2000-01-01T01:42:24.000Z</time>
      </trkpt>
      <trkpt lat="48.69511" lon="2.15977">
        <ele>71</ele>
        <time>2000-01-01T01:42:34.000Z</time>
      </trkpt>
      <trkpt lat="48.6955" lon="2.16001">
        <ele>69</ele>
        <time>2000-01-01T01:42:44.000Z</time>
      </trkpt>
      <trkpt lat="48.69575" lon="2.16003">
        <ele>67</ele>
        <time>2000-01-01T01:42:54.000Z</time>
      </trkpt>
      <trkpt lat="48.6961" lon="2.16">
        <ele>65</ele>
        <time>2000-01-01T01:43:04.000Z</time>
      </trkpt>
      <trkpt lat="48.69637" lon="2.15996">
        <ele>63</ele>
        <time>2000-01-01T01:43:14.000Z</time>
      </trkpt>
      <trkpt lat="48.69678" lon="2.15988">
        <ele>62</ele>
        <time>2000-01-01T01:43:24.000Z</time>
      </trkpt>
      <trkpt lat="48.69693" lon="2.15936">
        <ele>61</ele>
        <time>2000-01-01T01:43:34.000Z</time>
      </trkpt>
      <trkpt lat="48.69703" lon="2.15929">
        <ele>62.8</ele>
        <time>2000-01-01T01:43:44.000Z</time>
      </trkpt>
      <trkpt lat="48.69703" lon="2.15929">
        <ele>57</ele>
        <time>2000-01-01T01:43:54.000Z</time>
      </trkpt>
    </trkseg>
  </trk>
</gpx>